Portada
METAR-TAF:

METAR-TAF

Aeroports :

Aeroport Internacional d'Abu Dhabi

Abu Dhabi, Emirats Àrabs Units

latitud: 24-26N, longitud: 054-39E, altitud: 16 m

Observació

L'informe es va fer fa 56 minuts, a les 03:00 UTC
Vent 5 kt del Oest
Temperatura 23°C
Humitat 65%
Pressió 1013 hPa
Visibilitat 10 km o més
sense núvols per sota de 1500 mi sense presència de cumulonimbus.

METAR: OMAA 210300Z 28005KT CAVOK 23/16 Q1013 NOSIG

Hora: 07:56 (03:56 UTC)

Pronòstic

L'informe es va fer fa 4 hores i 56 minuts, a les 23:00 UTC
Pronòstic vàlid del 21 a les 00 UTC al 22 a les 06 UTC
Vent 13 kt del Nord-Oest
Visibilitat: 8000 m
Escasses núvols a una alçada de 3500 ft
Evolucionant progressivament
l' 21 a les 20 UTC al 21 a les 22 UTC
Vent 6 kt del Sud-Oest
Evolucionant progressivament
l' 22 a les 03 UTC al 22 a les 05 UTC
Vent 12 kt del Nord/Nord-Oest

TAF: OMAA 202300Z 2100/2206 31013KT 8000 FEW035 BECMG 2120/2122 23006KT BECMG 2203/2205 34012KT

Observacions i pronòstics meteorològics de més de 4000 aeroports (METAR i TAF).

Les estacions disponibles són els punts grocs i vermells al mapa.

Posi el ratolí al punt desitjat per veure el nom de l'estació.

Feu clic per veure les observacions i els pronòstics meteorològics.

Per canviar el mapa: feu clic els botons verds amb una creu de color negre per apropar; al botó verd amb un guió per allunyar la imatge; o en les fletxes verdes per a mapes adjacents.


METAR-TAF: